createdAt,value
2022-11-13T00:01:15.553Z,99992.38
2022-11-13T00:03:41.897Z,99993.69
2022-11-13T00:06:09.665Z,99988.56
2022-11-13T00:08:36.087Z,99992.53
2022-11-13T00:11:08.538Z,99984.72
2022-11-13T00:13:35.770Z,99983.75
2022-11-13T00:16:05.113Z,99982.56
2022-11-13T00:18:33.892Z,99972.50
2022-11-13T00:21:15.168Z,99971.41
2022-11-13T00:23:42.448Z,99964.69
2022-11-13T00:26:19.510Z,99971.75
2022-11-13T00:28:46.999Z,99966.47
2022-11-13T00:31:15.666Z,99963.38
2022-11-13T00:36:28.964Z,99968.97
2022-11-13T00:38:55.924Z,99960.72
2022-11-13T00:41:23.915Z,99956.97
2022-11-13T00:43:50.630Z,99955.63
2022-11-13T00:46:17.172Z,99945.91
2022-11-13T00:48:43.590Z,99953.91
2022-11-13T00:51:10.056Z,99944.56
2022-11-13T00:53:37.099Z,99948.88
2022-11-13T00:56:04.016Z,99938.22
2022-11-13T00:58:30.750Z,99940.50
2022-11-13T01:01:05.162Z,99951.69
2022-11-13T01:03:31.616Z,99937.03
2022-11-13T01:05:58.053Z,99937.84
2022-11-13T01:08:24.738Z,99936.56
2022-11-13T01:10:53.953Z,99938.09
2022-11-13T01:13:20.859Z,99939.19
2022-11-13T01:15:47.431Z,99932.59
2022-11-13T01:18:13.897Z,99926.84
2022-11-13T01:20:40.842Z,99920.75
2022-11-13T01:23:07.264Z,99921.47
2022-11-13T01:25:36.084Z,99919.78
2022-11-13T01:28:02.650Z,99909.09
2022-11-13T01:30:29.044Z,99903.97
2022-11-13T01:32:55.754Z,99906.38
2022-11-13T01:35:22.364Z,99896.69
2022-11-13T01:37:48.751Z,99895.13
2022-11-13T01:40:16.357Z,99895.22
2022-11-13T01:42:42.735Z,99881.09
2022-11-13T01:45:54.304Z,99879.28
2022-11-13T01:48:20.938Z,99879.78
2022-11-13T01:50:47.661Z,99875.59
2022-11-13T01:53:14.183Z,99877.97
2022-11-13T01:55:40.748Z,99870.06
2022-11-13T01:58:10.254Z,99863.84
2022-11-13T02:00:36.803Z,99866.25
2022-11-13T02:03:03.575Z,99872.47
2022-11-13T02:05:30.220Z,99864.09
2022-11-13T02:07:56.913Z,99859.50
2022-11-13T02:10:23.531Z,99854.97
2022-11-13T02:12:51.689Z,99850.66
2022-11-13T02:15:25.203Z,99852.69
2022-11-13T02:17:55.345Z,99847.53
2022-11-13T02:20:35.142Z,99842.03
2022-11-13T02:23:19.484Z,99841.53
2022-11-13T02:25:50.409Z,99838.41
2022-11-13T02:28:16.678Z,99835.31
2022-11-13T02:30:44.661Z,99832.66
2022-11-13T02:33:26.708Z,99834.38
2022-11-13T02:35:53.206Z,99832.41
2022-11-13T02:38:19.864Z,99831.59
2022-11-13T02:40:46.364Z,99836.25
2022-11-13T02:43:12.925Z,99831.69
2022-11-13T02:45:39.405Z,99829.31
2022-11-13T02:48:06.836Z,99829.06
2022-11-13T02:50:34.197Z,99825.00
2022-11-13T02:53:00.940Z,99821.16
2022-11-13T02:55:27.401Z,99816.63
2022-11-13T02:57:53.880Z,99816.38
2022-11-13T03:00:20.716Z,99816.38
2022-11-13T03:02:47.146Z,99819.50
2022-11-13T03:05:14.246Z,99810.50
2022-11-13T03:07:41.516Z,99810.63
2022-11-13T03:10:09.221Z,99808.34
2022-11-13T03:12:35.823Z,99808.00
2022-11-13T03:15:02.546Z,99806.53
2022-11-13T03:17:31.647Z,99805.22
2022-11-13T03:19:58.424Z,99802.94
2022-11-13T03:22:25.227Z,99800.44
2022-11-13T03:24:51.571Z,99799.34
2022-11-13T03:27:18.256Z,99798.63
2022-11-13T03:29:44.831Z,99799.34
2022-11-13T03:32:11.314Z,99802.94
2022-11-13T03:34:37.622Z,99798.03
2022-11-13T03:37:04.237Z,99797.22
2022-11-13T03:39:30.882Z,99794.19
2022-11-13T03:41:57.535Z,99785.69
2022-11-13T03:44:23.940Z,99790.97
2022-11-13T03:46:50.529Z,99798.63
2022-11-13T03:49:17.203Z,99793.22
2022-11-13T03:51:43.782Z,99797.81
2022-11-13T03:54:10.159Z,99785.94
2022-11-13T03:56:36.735Z,99795.16
2022-11-13T03:59:03.095Z,99783.88
2022-11-13T04:01:29.659Z,99787.00
2022-11-13T04:03:56.347Z,99785.94
2022-11-13T04:06:22.690Z,99783.31
2022-11-13T04:08:49.019Z,99778.50
2022-11-13T04:11:15.713Z,99778.38
2022-11-13T04:13:42.128Z,99778.63
2022-11-13T04:16:08.842Z,99776.69
2022-11-13T04:18:35.283Z,99773.38
2022-11-13T04:21:03.498Z,99779.47
2022-11-13T04:23:30.425Z,99774.69
2022-11-13T04:25:57.249Z,99776.59
2022-11-13T04:28:23.844Z,99765.19
2022-11-13T04:30:52.714Z,99772.25
2022-11-13T04:33:19.157Z,99772.03
2022-11-13T04:35:45.770Z,99765.53
2022-11-13T04:38:13.218Z,99765.31
2022-11-13T04:40:40.493Z,99755.75
2022-11-13T04:43:07.413Z,99754.66
2022-11-13T04:45:34.616Z,99753.44
2022-11-13T04:48:01.026Z,99752.25
2022-11-13T04:50:27.447Z,99748.69
2022-11-13T04:52:53.885Z,99756.44
2022-11-13T04:55:20.285Z,99745.44
2022-11-13T04:57:46.794Z,99749.59
2022-11-13T05:00:13.669Z,99750.91
2022-11-13T05:02:40.339Z,99751.03
2022-11-13T05:05:07.048Z,99742.28
2022-11-13T05:07:33.671Z,99744.69
2022-11-13T05:09:59.957Z,99737.88
2022-11-13T05:12:26.279Z,99742.75
2022-11-13T05:14:52.679Z,99737.00
2022-11-13T05:17:19.029Z,99731.88
2022-11-13T05:19:45.542Z,99735.34
2022-11-13T05:22:11.927Z,99726.00
2022-11-13T05:24:38.331Z,99724.34
2022-11-13T05:27:04.889Z,99717.59
2022-11-13T05:29:31.498Z,99708.72
2022-11-13T05:31:57.877Z,99714.97
2022-11-13T05:34:24.525Z,99712.44
2022-11-13T05:36:50.884Z,99713.41
2022-11-13T05:39:17.282Z,99713.16
2022-11-13T05:41:43.871Z,99709.47
2022-11-13T05:44:10.590Z,99710.16
2022-11-13T05:46:37.032Z,99720.00
2022-11-13T05:49:04.638Z,99715.81
2022-11-13T05:51:33.558Z,99715.34
2022-11-13T05:54:01.031Z,99720.69
2022-11-13T05:56:29.961Z,99715.31
2022-11-13T05:58:58.494Z,99727.75
2022-11-13T06:01:28.592Z,99727.63
2022-11-13T06:03:58.267Z,99732.06
2022-11-13T06:06:26.708Z,99725.34
2022-11-13T06:08:55.055Z,99729.16
2022-11-13T06:11:24.761Z,99729.50
2022-11-13T06:13:53.331Z,99716.69
2022-11-13T06:16:23.141Z,99718.25
2022-11-13T06:18:50.400Z,99718.72
2022-11-13T06:21:20.326Z,99726.13
2022-11-13T06:23:46.995Z,99715.09
2022-11-13T06:26:19.420Z,99714.38
2022-11-13T06:28:46.627Z,99720.13
2022-11-13T06:31:19.841Z,99717.81
2022-11-13T06:33:47.983Z,99708.41
2022-11-13T06:36:20.460Z,99712.69
2022-11-13T06:38:47.535Z,99711.03
2022-11-13T06:41:15.974Z,99711.19
2022-11-13T06:43:43.218Z,99715.84
2022-11-13T06:46:18.447Z,99714.72
2022-11-13T06:48:45.382Z,99711.97
2022-11-13T06:51:18.351Z,99701.56
2022-11-13T06:53:45.303Z,99704.06
2022-11-13T06:56:12.996Z,99700.81
2022-11-13T06:58:39.909Z,99706.59
2022-11-13T07:01:14.863Z,99696.03
2022-11-13T07:03:42.028Z,99701.06
2022-11-13T07:06:11.283Z,99697.00
2022-11-13T07:08:37.623Z,99700.28
2022-11-13T07:11:04.162Z,99695.38
2022-11-13T07:13:30.709Z,99687.13
2022-11-13T07:16:09.351Z,99686.06
2022-11-13T07:18:42.317Z,99680.19
2022-11-13T07:21:11.469Z,99675.78
2022-11-13T07:23:38.569Z,99676.16
2022-11-13T07:26:05.587Z,99668.50
2022-11-13T07:28:32.030Z,99660.03
2022-11-13T07:30:59.609Z,99670.53
2022-11-13T07:33:26.023Z,99676.47
2022-11-13T07:35:57.106Z,99677.91
2022-11-13T07:38:23.826Z,99677.59
2022-11-13T07:40:51.249Z,99679.84
2022-11-13T07:43:18.194Z,99682.66
2022-11-13T07:45:44.855Z,99689.56
2022-11-13T07:48:11.383Z,99695.25
2022-11-13T07:50:38.844Z,99686.91
2022-11-13T07:53:07.796Z,99689.28
2022-11-13T07:55:35.488Z,99693.31
2022-11-13T07:58:02.925Z,99689.28
2022-11-13T08:00:30.918Z,99691.41
2022-11-13T08:02:57.678Z,99690.00
2022-11-13T08:05:24.310Z,99685.59
2022-11-13T08:07:52.043Z,99679.50
2022-11-13T08:10:20.219Z,99673.03
2022-11-13T08:12:47.535Z,99684.53
2022-11-13T08:15:15.045Z,99686.09
2022-11-13T08:17:41.701Z,99684.22
2022-11-13T08:20:08.795Z,99691.56
2022-11-13T08:22:35.308Z,99692.72
2022-11-13T08:25:02.079Z,99718.59
2022-11-13T08:27:28.530Z,99729.75
2022-11-13T08:29:54.895Z,99746.75
2022-11-13T08:32:21.830Z,99759.91
2022-11-13T08:34:48.160Z,99764.84
2022-11-13T08:37:15.623Z,99771.44
2022-11-13T08:39:42.219Z,99778.47
2022-11-13T08:42:08.660Z,99767.94
2022-11-13T08:44:35.172Z,99769.16
2022-11-13T08:47:01.531Z,99772.97
2022-11-13T08:49:27.997Z,99785.56
2022-11-13T08:51:54.394Z,99780.19
2022-11-13T08:54:20.728Z,99775.03
2022-11-13T08:56:54.508Z,99774.91
2022-11-13T08:59:22.663Z,99776.94
2022-11-13T09:01:50.026Z,99776.94
2022-11-13T09:04:16.371Z,99781.84
2022-11-13T09:06:42.749Z,99794.66
2022-11-13T09:09:09.338Z,99800.03
2022-11-13T09:11:35.789Z,99804.31
2022-11-13T09:14:02.183Z,99779.31
2022-11-13T09:16:28.597Z,99773.44
2022-11-13T09:18:55.074Z,99767.50
2022-11-13T09:21:21.752Z,99756.69
2022-11-13T09:23:48.133Z,99747.72
2022-11-13T09:26:14.579Z,99786.28
2022-11-13T09:28:41.015Z,99799.00
2022-11-13T09:31:08.173Z,99799.25
2022-11-13T09:33:34.761Z,99804.59
2022-11-13T09:36:01.653Z,99788.47
2022-11-13T09:38:28.522Z,99385.78
2022-11-13T09:40:57.968Z,99386.06
2022-11-13T09:43:34.305Z,99394.25
2022-11-13T09:46:10.557Z,99396.06
2022-11-13T09:48:40.462Z,99398.19
2022-11-13T09:51:16.610Z,99386.47
2022-11-13T09:53:43.560Z,99382.72
2022-11-13T09:56:12.796Z,99376.59
2022-11-13T09:58:48.417Z,99389.97
2022-11-13T10:01:40.112Z,99381.34
2022-11-13T10:04:14.344Z,99387.59
2022-11-13T10:07:03.677Z,99388.25
2022-11-13T10:10:10.310Z,99383.69
2022-11-13T10:12:36.874Z,99380.50
2022-11-13T10:15:05.321Z,99376.94
2022-11-13T10:17:46.909Z,99381.81
2022-11-13T10:20:23.644Z,99379.88
2022-11-13T10:23:06.122Z,99370.78
2022-11-13T10:25:36.776Z,99362.84
2022-11-13T10:28:35.392Z,99358.63
2022-11-13T10:30:58.742Z,99359.56
2022-11-13T10:33:25.342Z,99359.09
2022-11-13T10:36:18.198Z,99347.91
2022-11-13T10:38:50.414Z,99332.31
2022-11-13T10:41:21.637Z,99317.53
2022-11-13T10:44:01.614Z,99322.03
2022-11-13T10:46:30.406Z,99312.72
2022-11-13T10:48:58.892Z,99310.38
2022-11-13T10:51:31.953Z,99313.78
2022-11-13T10:53:59.217Z,99298.41
2022-11-13T10:56:26.509Z,99285.97
2022-11-13T10:59:10.573Z,99275.84
2022-11-13T11:01:37.396Z,99267.66
2022-11-13T11:04:06.031Z,99258.47
2022-11-13T11:07:12.595Z,99245.06
2022-11-13T11:09:41.944Z,99259.13
2022-11-13T11:12:17.462Z,99238.44
2022-11-13T11:14:59.342Z,99242.78
2022-11-13T11:17:52.415Z,99236.53
2022-11-13T11:20:53.240Z,99230.03
2022-11-13T11:23:32.833Z,99225.69
2022-11-13T11:26:15.693Z,99214.41
2022-11-13T11:28:46.747Z,99207.44
2022-11-13T11:31:32.646Z,99198.63
2022-11-13T11:34:23.947Z,99201.81
2022-11-13T11:37:03.064Z,99195.81
2022-11-13T11:39:37.433Z,99187.31
2022-11-13T11:42:41.659Z,99174.50
2022-11-13T11:45:20.068Z,99176.44
2022-11-13T11:47:47.006Z,99178.81
2022-11-13T11:50:15.958Z,99163.69
2022-11-13T11:53:07.633Z,99153.91
2022-11-13T11:55:52.958Z,99154.06
2022-11-13T11:58:52.317Z,99152.25
2022-11-13T12:01:30.781Z,99139.84
2022-11-13T12:04:13.709Z,99141.19
2022-11-13T12:06:49.200Z,99128.59
2022-11-13T12:09:26.830Z,99113.19
2022-11-13T12:12:36.997Z,99099.28
2022-11-13T12:15:08.692Z,99094.50
2022-11-13T12:17:56.464Z,99084.25
2022-11-13T12:20:31.839Z,99086.84
2022-11-13T12:23:28.781Z,99083.59
2022-11-13T12:26:04.050Z,99071.34
2022-11-13T12:28:53.196Z,99067.44
2022-11-13T12:31:37.510Z,99054.84
2022-11-13T12:34:19.830Z,99060.16
2022-11-13T12:36:47.541Z,99061.69
2022-11-13T12:39:36.039Z,99056.19
2022-11-13T12:42:20.502Z,99054.91
2022-11-13T12:44:52.737Z,99053.72
2022-11-13T12:47:19.599Z,99050.16
2022-11-13T12:49:46.038Z,99057.72
2022-11-13T12:52:21.539Z,99046.13
2022-11-13T12:54:48.806Z,99043.72
2022-11-13T12:57:15.149Z,99034.00
2022-11-13T12:59:45.498Z,99027.72
2022-11-13T13:02:14.580Z,99020.34
2022-11-13T13:05:18.682Z,99018.81
2022-11-13T13:08:05.227Z,99023.91
2022-11-13T13:10:52.635Z,99016.25
2022-11-13T13:13:38.235Z,99015.97
2022-11-13T13:16:06.006Z,99008.03
2022-11-13T13:18:37.605Z,99010.91
2022-11-13T13:21:19.154Z,99001.03
2022-11-13T13:23:48.948Z,99010.50
2022-11-13T13:26:15.431Z,99004.28
2022-11-13T13:28:46.859Z,99007.09
2022-11-13T13:31:13.203Z,98994.25
2022-11-13T13:33:59.539Z,99002.91
2022-11-13T13:36:30.633Z,98996.56
2022-11-13T13:39:23.815Z,98981.91
2022-11-13T13:42:28.980Z,98982.81
2022-11-13T13:45:32.773Z,98977.00
2022-11-13T13:48:00.972Z,98978.31
2022-11-13T13:50:32.762Z,98973.16
2022-11-13T13:53:00.402Z,98975.88
2022-11-13T13:55:36.734Z,98967.53
2022-11-13T13:58:08.687Z,98963.53
2022-11-13T14:00:44.610Z,98960.34
2022-11-13T14:03:22.995Z,98954.94
2022-11-13T14:05:49.389Z,98956.72
2022-11-13T14:08:27.332Z,98960.41
2022-11-13T14:10:53.914Z,98949.34
2022-11-13T14:13:29.384Z,98949.56
2022-11-13T14:16:07.016Z,98941.19
2022-11-13T14:18:34.963Z,98926.31
2022-11-13T14:21:06.016Z,98926.47
2022-11-13T14:23:39.819Z,98931.16
2022-11-13T14:26:07.250Z,98932.56
2022-11-13T14:28:44.098Z,98934.41
2022-11-13T14:31:14.114Z,98924.88
2022-11-13T14:33:50.297Z,98932.34
2022-11-13T14:36:29.203Z,98935.78
2022-11-13T14:38:56.504Z,98934.47
2022-11-13T14:41:38.454Z,98941.34
2022-11-13T14:44:05.908Z,98931.97
2022-11-13T14:46:37.924Z,98934.31
2022-11-13T14:49:11.506Z,98948.03
2022-11-13T14:51:38.125Z,98949.66
2022-11-13T14:54:08.879Z,98949.41
2022-11-13T14:56:41.648Z,98943.16
2022-11-13T14:59:20.025Z,98929.56
2022-11-13T15:01:56.993Z,98940.84
2022-11-13T15:04:24.578Z,98935.09
2022-11-13T15:06:52.150Z,98947.13
2022-11-13T15:09:18.849Z,98954.00
2022-11-13T15:11:45.292Z,98958.94
2022-11-13T15:14:17.083Z,98964.03
2022-11-13T15:16:47.695Z,98958.75
2022-11-13T15:19:20.702Z,98952.88
2022-11-13T15:22:05.499Z,98954.13
2022-11-13T15:24:34.022Z,98953.03
2022-11-13T15:27:01.881Z,98950.09
2022-11-13T15:29:28.315Z,98950.13
2022-11-13T15:31:54.746Z,98952.19
2022-11-13T15:34:21.277Z,98955.22
2022-11-13T15:36:48.004Z,98962.25
2022-11-13T15:39:22.975Z,98956.47
2022-11-13T15:41:50.014Z,98962.63
2022-11-13T15:44:16.488Z,98958.00
2022-11-13T15:46:42.866Z,98959.41
2022-11-13T15:49:09.530Z,98963.38
2022-11-13T15:51:45.849Z,98959.28
2022-11-13T15:54:25.410Z,98953.34
2022-11-13T15:56:51.836Z,98963.16
2022-11-13T15:59:18.279Z,98964.16
2022-11-13T16:01:44.709Z,98973.13
2022-11-13T16:04:11.272Z,98965.97
2022-11-13T16:06:37.786Z,98969.31
2022-11-13T16:09:04.842Z,98977.25
2022-11-13T16:11:33.304Z,98974.28
2022-11-13T16:14:00.105Z,98974.63
2022-11-13T16:16:35.924Z,98979.75
2022-11-13T16:19:03.219Z,98978.91
2022-11-13T16:21:30.708Z,98973.41
2022-11-13T16:23:57.267Z,98978.88
2022-11-13T16:26:26.118Z,98988.63
2022-11-13T16:29:12.827Z,98986.81
2022-11-13T16:31:40.252Z,98983.16
2022-11-13T16:34:06.617Z,98988.63
2022-11-13T16:36:33.228Z,98979.81
2022-11-13T16:38:59.812Z,98992.22
2022-11-13T16:41:26.266Z,98994.19
2022-11-13T16:43:52.831Z,98999.47
2022-11-13T16:46:31.936Z,98993.84
2022-11-13T16:48:58.899Z,98997.13
2022-11-13T16:51:25.254Z,98991.63
2022-11-13T16:53:51.701Z,98994.25
2022-11-13T16:56:21.954Z,98990.41
2022-11-13T16:58:48.339Z,98998.16
2022-11-13T17:01:16.484Z,98993.66
2022-11-13T17:03:43.712Z,98992.59
2022-11-13T17:06:24.929Z,98999.53
2022-11-13T17:08:52.368Z,98997.34
2022-11-13T17:11:19.701Z,99001.16
2022-11-13T17:13:54.180Z,99002.59
2022-11-13T17:16:22.131Z,99005.88
2022-11-13T17:18:48.815Z,99001.19
2022-11-13T17:21:16.515Z,98994.38
2022-11-13T17:23:43.338Z,98997.34
2022-11-13T17:26:10.554Z,98992.66
2022-11-13T17:28:37.180Z,99003.25
2022-11-13T17:31:08.238Z,98999.25
2022-11-13T17:33:35.257Z,98994.41
2022-11-13T17:36:01.621Z,98991.56
2022-11-13T17:38:28.373Z,98993.69
2022-11-13T17:40:55.070Z,98992.34
2022-11-13T17:43:22.069Z,99002.41
2022-11-13T17:45:52.353Z,98993.25
2022-11-13T17:48:18.979Z,98994.69
2022-11-13T17:50:45.821Z,98989.19
2022-11-13T17:53:13.365Z,98991.31
2022-11-13T17:55:41.155Z,98998.00
2022-11-13T17:58:07.694Z,98993.16
2022-11-13T18:00:34.398Z,98994.75
2022-11-13T18:03:00.778Z,98995.53
2022-11-13T18:05:27.161Z,98993.31
2022-11-13T18:07:53.705Z,98990.31
2022-11-13T18:10:20.413Z,98999.34
2022-11-13T18:12:47.103Z,98990.34
2022-11-13T18:15:13.461Z,98990.50
2022-11-13T18:17:39.769Z,98989.69
2022-11-13T18:20:06.803Z,98988.28
2022-11-13T18:22:33.222Z,98983.56
2022-11-13T18:24:59.664Z,98985.97
2022-11-13T18:27:27.839Z,98985.97
2022-11-13T18:29:54.520Z,98979.84
2022-11-13T18:32:21.122Z,98981.81
2022-11-13T18:34:47.491Z,98971.38
2022-11-13T18:37:14.065Z,98963.91
2022-11-13T18:39:40.602Z,98970.44
2022-11-13T18:42:07.094Z,98965.94
2022-11-13T18:44:33.384Z,98969.16
2022-11-13T18:46:59.831Z,98967.09
2022-11-13T18:49:26.205Z,98963.75
2022-11-13T18:51:52.823Z,98951.72
2022-11-13T18:54:19.495Z,98955.31
2022-11-13T18:56:45.942Z,98961.03
2022-11-13T18:59:12.331Z,98956.34
2022-11-13T19:01:39.125Z,98949.38
2022-11-13T19:04:22.259Z,98948.44
2022-11-13T19:06:49.826Z,98943.28
2022-11-13T19:09:17.771Z,98946.75
2022-11-13T19:11:44.852Z,98952.47
2022-11-13T19:14:15.917Z,98955.53
2022-11-13T19:16:42.571Z,98958.03
2022-11-13T19:19:18.625Z,98949.13
2022-11-13T19:21:45.480Z,98946.94
2022-11-13T19:24:12.090Z,98944.44
2022-11-13T19:26:38.785Z,98945.88
2022-11-13T19:29:05.216Z,98930.63
2022-11-13T19:31:31.931Z,98930.19
2022-11-13T19:33:59.919Z,98933.09
2022-11-13T19:36:28.303Z,98931.22
2022-11-13T19:38:55.604Z,98930.91
2022-11-13T19:41:23.512Z,98926.50
2022-11-13T19:43:50.152Z,98935.53
2022-11-13T19:46:18.429Z,98939.28
2022-11-13T19:48:46.142Z,98936.09
2022-11-13T19:51:21.411Z,98931.66
2022-11-13T19:53:52.397Z,98938.31
2022-11-13T19:56:20.580Z,98934.31
2022-11-13T19:58:48.744Z,98927.09
2022-11-13T20:01:19.569Z,98924.09
2022-11-13T20:03:46.090Z,98932.13
2022-11-13T20:06:14.279Z,98930.75
2022-11-13T20:08:41.105Z,98927.56
2022-11-13T20:11:10.040Z,98934.25
2022-11-13T20:13:37.813Z,98923.00
2022-11-13T20:16:06.164Z,99290.34
2022-11-13T20:18:33.048Z,99282.97
2022-11-13T20:21:00.313Z,99289.75
2022-11-13T20:23:26.831Z,99281.28
2022-11-13T20:25:55.615Z,99286.09
2022-11-13T20:28:22.546Z,99286.19
2022-11-13T20:30:49.397Z,99281.19
2022-11-13T20:33:21.222Z,99275.25
2022-11-13T20:35:55.054Z,99271.06
2022-11-13T20:38:21.372Z,99287.00
2022-11-13T20:40:47.823Z,99290.75
2022-11-13T20:43:14.480Z,99258.41
2022-11-13T20:45:41.119Z,99205.53
2022-11-13T20:48:07.557Z,99218.41
2022-11-13T20:50:37.835Z,99207.56
2022-11-13T20:53:05.433Z,99198.56
2022-11-13T20:55:31.812Z,99192.06
2022-11-13T20:57:58.348Z,99180.41
2022-11-13T21:00:24.743Z,99185.63
2022-11-13T21:02:52.176Z,99189.91
2022-11-13T21:05:18.806Z,99181.19
2022-11-13T21:07:45.423Z,99180.47
2022-11-13T21:10:12.135Z,99187.69
2022-11-13T21:12:38.511Z,99186.84
2022-11-13T21:15:05.534Z,99186.72
2022-11-13T21:17:32.186Z,99185.88
2022-11-13T21:19:58.600Z,99179.53
2022-11-13T21:22:25.008Z,99172.56
2022-11-13T21:24:51.330Z,99169.94
2022-11-13T21:27:17.821Z,99160.25
2022-11-13T21:29:44.473Z,99156.78
2022-11-13T21:32:10.818Z,99159.41
2022-11-13T21:34:37.236Z,99162.63
2022-11-13T21:37:03.695Z,99158.63
2022-11-13T21:39:30.261Z,99165.03
2022-11-13T21:41:57.028Z,99153.00
2022-11-13T21:44:23.792Z,99153.03
2022-11-13T21:46:50.191Z,99153.34
2022-11-13T21:49:16.657Z,99155.16
2022-11-13T21:51:43.712Z,99159.72
2022-11-13T21:54:10.207Z,99147.56
2022-11-13T21:56:38.852Z,99156.56
2022-11-13T21:59:06.324Z,99159.78
2022-11-13T22:01:38.096Z,99174.47
2022-11-13T22:04:06.288Z,99162.97
2022-11-13T22:06:34.021Z,99156.19
2022-11-13T22:09:13.248Z,99149.66
2022-11-13T22:11:39.880Z,99155.63
2022-11-13T22:14:06.702Z,99168.06
2022-11-13T22:16:34.842Z,99161.28
2022-11-13T22:19:02.917Z,99168.50
2022-11-13T22:21:30.704Z,99161.94
2022-11-13T22:23:58.142Z,99158.03
2022-11-13T22:26:26.228Z,99154.84
2022-11-13T22:28:53.704Z,99148.19
2022-11-13T22:31:23.017Z,99145.66
2022-11-13T22:33:54.380Z,99137.06
2022-11-13T22:36:26.460Z,99139.97
2022-11-13T22:38:53.390Z,99134.69
2022-11-13T22:41:25.634Z,99133.19
2022-11-13T22:43:54.787Z,99138.72
2022-11-13T22:46:23.909Z,99136.34
2022-11-13T22:48:52.211Z,99130.22
2022-11-13T22:51:21.139Z,99122.88
2022-11-13T22:54:01.448Z,99124.91
2022-11-13T22:56:30.364Z,99111.19
2022-11-13T22:58:58.682Z,99113.97
2022-11-13T23:01:28.072Z,99115.06
2022-11-13T23:03:56.404Z,99105.88
2022-11-13T23:06:25.096Z,99094.06
2022-11-13T23:08:53.871Z,99088.38
2022-11-13T23:11:21.992Z,99081.44
2022-11-13T23:13:52.561Z,99084.22
2022-11-13T23:16:19.800Z,99077.00
2022-11-13T23:18:47.274Z,99080.59
2022-11-13T23:21:14.889Z,99072.59
2022-11-13T23:23:41.398Z,99078.38
2022-11-13T23:26:10.231Z,99072.66
2022-11-13T23:28:37.502Z,99069.22
2022-11-13T23:31:04.812Z,99065.88
2022-11-13T23:33:31.598Z,99066.38
2022-11-13T23:35:58.584Z,99057.22
2022-11-13T23:38:25.164Z,99062.75
2022-11-13T23:40:58.021Z,99056.91
2022-11-13T23:43:47.384Z,99051.22
2022-11-13T23:46:11.747Z,99056.75
2022-11-13T23:48:40.013Z,99053.53
2022-11-13T23:51:07.022Z,99049.63
2022-11-13T23:53:33.692Z,99050.16
2022-11-13T23:56:00.415Z,99042.38
2022-11-13T23:58:27.281Z,99033.53
